sensor_id;sensor_type;location;lat;lon;timestamp;temperature;humidity
33825;DHT22;20127;48.962;8.342;2023-06-26T00:00:06;18.00;99.90
33825;DHT22;20127;48.962;8.342;2023-06-26T00:03:09;17.90;99.90
33825;DHT22;20127;48.962;8.342;2023-06-26T00:06:15;17.90;99.90
33825;DHT22;20127;48.962;8.342;2023-06-26T00:09:17;17.80;99.90
33825;DHT22;20127;48.962;8.342;2023-06-26T00:12:20;17.80;99.90
33825;DHT22;20127;48.962;8.342;2023-06-26T00:15:21;17.70;99.90
33825;DHT22;20127;48.962;8.342;2023-06-26T00:18:23;17.60;99.90
33825;DHT22;20127;48.962;8.342;2023-06-26T00:21:25;17.60;99.90
33825;DHT22;20127;48.962;8.342;2023-06-26T00:24:27;17.50;99.90
33825;DHT22;20127;48.962;8.342;2023-06-26T00:27:30;17.50;99.90
33825;DHT22;20127;48.962;8.342;2023-06-26T00:30:32;17.40;99.90
33825;DHT22;20127;48.962;8.342;2023-06-26T00:33:34;17.40;99.90
33825;DHT22;20127;48.962;8.342;2023-06-26T00:36:35;17.20;99.90
33825;DHT22;20127;48.962;8.342;2023-06-26T00:39:37;17.20;99.90
33825;DHT22;20127;48.962;8.342;2023-06-26T00:42:40;17.10;99.90
33825;DHT22;20127;48.962;8.342;2023-06-26T00:45:42;17.20;99.90
33825;DHT22;20127;48.962;8.342;2023-06-26T00:48:46;17.20;99.90
33825;DHT22;20127;48.962;8.342;2023-06-26T00:51:50;17.10;99.90
33825;DHT22;20127;48.962;8.342;2023-06-26T00:54:52;17.10;99.90
33825;DHT22;20127;48.962;8.342;2023-06-26T00:57:55;17.10;99.90
33825;DHT22;20127;48.962;8.342;2023-06-26T01:00:57;17.00;99.90
33825;DHT22;20127;48.962;8.342;2023-06-26T01:04:01;16.90;99.90
33825;DHT22;20127;48.962;8.342;2023-06-26T01:07:04;16.80;99.90
33825;DHT22;20127;48.962;8.342;2023-06-26T01:10:08;16.80;99.90
33825;DHT22;20127;48.962;8.342;2023-06-26T01:13:11;16.80;99.90
33825;DHT22;20127;48.962;8.342;2023-06-26T01:16:15;16.70;99.90
33825;DHT22;20127;48.962;8.342;2023-06-26T01:19:23;16.70;99.90
33825;DHT22;20127;48.962;8.342;2023-06-26T01:22:31;16.70;99.90
33825;DHT22;20127;48.962;8.342;2023-06-26T01:25:54;16.70;99.90
33825;DHT22;20127;48.962;8.342;2023-06-26T01:29:00;16.60;99.90
33825;DHT22;20127;48.962;8.342;2023-06-26T01:32:03;16.60;99.90
33825;DHT22;20127;48.962;8.342;2023-06-26T01:35:07;16.60;99.90
33825;DHT22;20127;48.962;8.342;2023-06-26T01:38:14;16.50;99.90
33825;DHT22;20127;48.962;8.342;2023-06-26T01:41:17;16.50;99.90
33825;DHT22;20127;48.962;8.342;2023-06-26T01:44:26;16.50;99.90
33825;DHT22;20127;48.962;8.342;2023-06-26T01:47:29;16.50;99.90
33825;DHT22;20127;48.962;8.342;2023-06-26T01:50:33;16.50;99.90
33825;DHT22;20127;48.962;8.342;2023-06-26T01:53:41;16.50;99.90
33825;DHT22;20127;48.962;8.342;2023-06-26T01:56:49;16.50;99.90
33825;DHT22;20127;48.962;8.342;2023-06-26T01:59:55;16.50;99.90
33825;DHT22;20127;48.962;8.342;2023-06-26T02:02:57;16.40;99.90
33825;DHT22;20127;48.962;8.342;2023-06-26T02:05:59;16.40;99.90
33825;DHT22;20127;48.962;8.342;2023-06-26T02:09:01;16.40;99.90
33825;DHT22;20127;48.962;8.342;2023-06-26T02:12:04;16.30;99.90
33825;DHT22;20127;48.962;8.342;2023-06-26T02:15:08;16.20;99.90
33825;DHT22;20127;48.962;8.342;2023-06-26T02:18:10;16.30;99.90
33825;DHT22;20127;48.962;8.342;2023-06-26T02:21:13;16.20;99.90
33825;DHT22;20127;48.962;8.342;2023-06-26T02:24:14;16.20;99.90
33825;DHT22;20127;48.962;8.342;2023-06-26T02:27:16;16.20;99.90
33825;DHT22;20127;48.962;8.342;2023-06-26T02:30:19;16.20;99.90
33825;DHT22;20127;48.962;8.342;2023-06-26T02:33:21;16.20;99.90
33825;DHT22;20127;48.962;8.342;2023-06-26T02:36:23;16.20;99.90
33825;DHT22;20127;48.962;8.342;2023-06-26T02:39:24;16.20;99.90
33825;DHT22;20127;48.962;8.342;2023-06-26T02:42:26;16.10;99.90
33825;DHT22;20127;48.962;8.342;2023-06-26T02:45:29;16.10;99.90
33825;DHT22;20127;48.962;8.342;2023-06-26T02:48:31;16.10;99.90
33825;DHT22;20127;48.962;8.342;2023-06-26T02:51:32;16.10;99.90
33825;DHT22;20127;48.962;8.342;2023-06-26T02:54:34;16.10;99.90
33825;DHT22;20127;48.962;8.342;2023-06-26T02:57:36;16.20;99.90
33825;DHT22;20127;48.962;8.342;2023-06-26T03:00:39;16.30;99.90
33825;DHT22;20127;48.962;8.342;2023-06-26T03:03:41;16.40;99.90
33825;DHT22;20127;48.962;8.342;2023-06-26T03:06:43;16.40;99.90
33825;DHT22;20127;48.962;8.342;2023-06-26T03:09:45;16.40;99.90
33825;DHT22;20127;48.962;8.342;2023-06-26T03:12:47;16.30;99.90
33825;DHT22;20127;48.962;8.342;2023-06-26T03:15:50;16.30;99.90
33825;DHT22;20127;48.962;8.342;2023-06-26T03:18:51;16.20;99.90
33825;DHT22;20127;48.962;8.342;2023-06-26T03:21:53;16.20;99.90
33825;DHT22;20127;48.962;8.342;2023-06-26T03:24:55;16.20;99.90
33825;DHT22;20127;48.962;8.342;2023-06-26T03:27:57;16.10;99.90
33825;DHT22;20127;48.962;8.342;2023-06-26T03:31:00;16.00;99.90
33825;DHT22;20127;48.962;8.342;2023-06-26T03:34:01;16.10;99.90
33825;DHT22;20127;48.962;8.342;2023-06-26T03:37:03;16.10;99.90
33825;DHT22;20127;48.962;8.342;2023-06-26T03:40:06;16.10;99.90
33825;DHT22;20127;48.962;8.342;2023-06-26T03:43:08;16.10;99.90
33825;DHT22;20127;48.962;8.342;2023-06-26T03:46:11;16.00;99.90
33825;DHT22;20127;48.962;8.342;2023-06-26T03:49:13;15.90;99.90
33825;DHT22;20127;48.962;8.342;2023-06-26T03:52:15;15.90;99.90
33825;DHT22;20127;48.962;8.342;2023-06-26T03:55:17;16.00;99.90
33825;DHT22;20127;48.962;8.342;2023-06-26T03:58:19;16.00;99.90
33825;DHT22;20127;48.962;8.342;2023-06-26T04:01:22;16.10;99.90
33825;DHT22;20127;48.962;8.342;2023-06-26T04:04:23;16.20;99.90
33825;DHT22;20127;48.962;8.342;2023-06-26T04:07:25;16.30;99.90
33825;DHT22;20127;48.962;8.342;2023-06-26T04:10:27;16.50;99.90
33825;DHT22;20127;48.962;8.342;2023-06-26T04:13:28;16.60;99.90
33825;DHT22;20127;48.962;8.342;2023-06-26T04:16:32;16.60;99.90
33825;DHT22;20127;48.962;8.342;2023-06-26T04:19:33;16.90;99.90
33825;DHT22;20127;48.962;8.342;2023-06-26T04:22:36;17.40;99.90
33825;DHT22;20127;48.962;8.342;2023-06-26T04:25:38;18.10;99.90
33825;DHT22;20127;48.962;8.342;2023-06-26T04:28:40;18.90;99.90
33825;DHT22;20127;48.962;8.342;2023-06-26T04:31:43;19.40;99.90
33825;DHT22;20127;48.962;8.342;2023-06-26T04:34:46;19.70;99.90
33825;DHT22;20127;48.962;8.342;2023-06-26T04:37:48;20.10;99.90
33825;DHT22;20127;48.962;8.342;2023-06-26T04:40:50;20.70;99.90
33825;DHT22;20127;48.962;8.342;2023-06-26T04:43:51;21.50;99.90
33825;DHT22;20127;48.962;8.342;2023-06-26T04:46:54;22.20;99.90
33825;DHT22;20127;48.962;8.342;2023-06-26T04:49:56;23.00;98.60
33825;DHT22;20127;48.962;8.342;2023-06-26T04:52:58;23.60;96.80
33825;DHT22;20127;48.962;8.342;2023-06-26T04:55:59;24.40;94.80
33825;DHT22;20127;48.962;8.342;2023-06-26T04:59:01;25.10;92.70
33825;DHT22;20127;48.962;8.342;2023-06-26T05:02:05;25.70;91.00
33825;DHT22;20127;48.962;8.342;2023-06-26T05:05:07;26.40;88.00
33825;DHT22;20127;48.962;8.342;2023-06-26T05:08:16;27.30;83.80
33825;DHT22;20127;48.962;8.342;2023-06-26T05:11:18;28.20;78.30
33825;DHT22;20127;48.962;8.342;2023-06-26T05:14:19;28.80;75.50
33825;DHT22;20127;48.962;8.342;2023-06-26T05:17:22;29.20;72.40
33825;DHT22;20127;48.962;8.342;2023-06-26T05:20:24;29.50;69.80
33825;DHT22;20127;48.962;8.342;2023-06-26T05:23:27;29.70;68.30
33825;DHT22;20127;48.962;8.342;2023-06-26T05:26:32;29.90;67.00
33825;DHT22;20127;48.962;8.342;2023-06-26T05:29:34;30.50;66.00
33825;DHT22;20127;48.962;8.342;2023-06-26T05:32:39;30.80;63.70
33825;DHT22;20127;48.962;8.342;2023-06-26T05:35:41;31.10;62.30
33825;DHT22;20127;48.962;8.342;2023-06-26T05:38:44;31.50;61.10
33825;DHT22;20127;48.962;8.342;2023-06-26T05:41:47;31.80;59.40
33825;DHT22;20127;48.962;8.342;2023-06-26T05:44:49;31.90;58.10
33825;DHT22;20127;48.962;8.342;2023-06-26T05:47:52;32.10;57.00
33825;DHT22;20127;48.962;8.342;2023-06-26T05:50:54;31.60;56.40
33825;DHT22;20127;48.962;8.342;2023-06-26T05:53:56;30.40;57.20
33825;DHT22;20127;48.962;8.342;2023-06-26T05:56:58;29.50;58.80
33825;DHT22;20127;48.962;8.342;2023-06-26T06:00:01;28.70;60.30
33825;DHT22;20127;48.962;8.342;2023-06-26T06:03:05;28.10;61.00
33825;DHT22;20127;48.962;8.342;2023-06-26T06:06:06;27.50;62.00
33825;DHT22;20127;48.962;8.342;2023-06-26T06:09:08;27.10;63.40
33825;DHT22;20127;48.962;8.342;2023-06-26T06:12:10;26.70;63.80
33825;DHT22;20127;48.962;8.342;2023-06-26T06:15:12;26.30;64.80
33825;DHT22;20127;48.962;8.342;2023-06-26T06:18:15;26.00;66.00
33825;DHT22;20127;48.962;8.342;2023-06-26T06:21:16;25.70;67.10
33825;DHT22;20127;48.962;8.342;2023-06-26T06:24:18;25.70;67.50
33825;DHT22;20127;48.962;8.342;2023-06-26T06:27:20;25.70;67.90
33825;DHT22;20127;48.962;8.342;2023-06-26T06:30:22;25.70;68.40
33825;DHT22;20127;48.962;8.342;2023-06-26T06:33:25;25.60;68.60
33825;DHT22;20127;48.962;8.342;2023-06-26T06:36:27;25.60;69.10
33825;DHT22;20127;48.962;8.342;2023-06-26T06:39:28;25.80;69.30
33825;DHT22;20127;48.962;8.342;2023-06-26T06:42:30;25.80;69.40
33825;DHT22;20127;48.962;8.342;2023-06-26T06:45:32;26.00;69.40
33825;DHT22;20127;48.962;8.342;2023-06-26T06:48:35;26.10;69.40
33825;DHT22;20127;48.962;8.342;2023-06-26T06:51:36;26.20;69.40
33825;DHT22;20127;48.962;8.342;2023-06-26T06:54:51;26.40;69.20
33825;DHT22;20127;48.962;8.342;2023-06-26T06:57:54;26.60;69.20
33825;DHT22;20127;48.962;8.342;2023-06-26T07:00:55;26.70;68.40
33825;DHT22;20127;48.962;8.342;2023-06-26T07:03:59;26.80;68.40
33825;DHT22;20127;48.962;8.342;2023-06-26T07:07:00;26.80;68.60
33825;DHT22;20127;48.962;8.342;2023-06-26T07:10:05;26.90;68.60
33825;DHT22;20127;48.962;8.342;2023-06-26T07:13:07;27.00;67.80
33825;DHT22;20127;48.962;8.342;2023-06-26T07:16:08;27.10;67.20
33825;DHT22;20127;48.962;8.342;2023-06-26T07:19:13;27.20;66.00
33825;DHT22;20127;48.962;8.342;2023-06-26T07:22:15;27.20;65.40
33825;DHT22;20127;48.962;8.342;2023-06-26T07:25:17;27.20;65.40
33825;DHT22;20127;48.962;8.342;2023-06-26T07:28:18;27.40;65.20
33825;DHT22;20127;48.962;8.342;2023-06-26T07:31:20;27.60;64.90
33825;DHT22;20127;48.962;8.342;2023-06-26T07:34:23;27.80;64.30
33825;DHT22;20127;48.962;8.342;2023-06-26T07:37:25;27.80;63.30
33825;DHT22;20127;48.962;8.342;2023-06-26T07:40:27;27.70;63.40
33825;DHT22;20127;48.962;8.342;2023-06-26T07:43:28;27.80;63.30
33825;DHT22;20127;48.962;8.342;2023-06-26T07:46:31;27.90;62.70
33825;DHT22;20127;48.962;8.342;2023-06-26T07:49:34;28.00;63.00
33825;DHT22;20127;48.962;8.342;2023-06-26T07:52:36;28.10;63.50
33825;DHT22;20127;48.962;8.342;2023-06-26T07:55:38;28.30;62.50
33825;DHT22;20127;48.962;8.342;2023-06-26T07:58:39;28.50;62.30
33825;DHT22;20127;48.962;8.342;2023-06-26T08:01:41;28.60;62.00
33825;DHT22;20127;48.962;8.342;2023-06-26T08:04:44;28.70;62.10
33825;DHT22;20127;48.962;8.342;2023-06-26T08:07:46;28.60;62.40
33825;DHT22;20127;48.962;8.342;2023-06-26T08:10:48;28.60;62.80
33825;DHT22;20127;48.962;8.342;2023-06-26T08:13:49;28.70;62.60
33825;DHT22;20127;48.962;8.342;2023-06-26T08:16:51;28.70;62.50
33825;DHT22;20127;48.962;8.342;2023-06-26T08:19:54;29.20;62.40
33825;DHT22;20127;48.962;8.342;2023-06-26T08:22:56;30.00;61.50
33825;DHT22;20127;48.962;8.342;2023-06-26T08:25:57;30.90;60.00
33825;DHT22;20127;48.962;8.342;2023-06-26T08:28:59;31.60;58.40
33825;DHT22;20127;48.962;8.342;2023-06-26T08:32:01;31.60;57.80
33825;DHT22;20127;48.962;8.342;2023-06-26T08:35:06;32.30;57.10
33825;DHT22;20127;48.962;8.342;2023-06-26T08:38:10;32.50;55.70
33825;DHT22;20127;48.962;8.342;2023-06-26T08:41:12;32.60;55.70
33825;DHT22;20127;48.962;8.342;2023-06-26T08:44:14;32.20;55.30
33825;DHT22;20127;48.962;8.342;2023-06-26T08:47:15;31.60;55.60
33825;DHT22;20127;48.962;8.342;2023-06-26T08:50:20;31.60;56.80
33825;DHT22;20127;48.962;8.342;2023-06-26T08:53:29;32.20;56.00
33825;DHT22;20127;48.962;8.342;2023-06-26T08:56:36;32.60;55.70
33825;DHT22;20127;48.962;8.342;2023-06-26T08:59:38;32.60;54.80
33825;DHT22;20127;48.962;8.342;2023-06-26T09:02:41;32.70;54.00
33825;DHT22;20127;48.962;8.342;2023-06-26T09:05:44;32.80;54.00
33825;DHT22;20127;48.962;8.342;2023-06-26T09:08:46;33.20;53.20
33825;DHT22;20127;48.962;8.342;2023-06-26T09:11:47;33.10;52.40
33825;DHT22;20127;48.962;8.342;2023-06-26T09:14:50;32.60;53.00
33825;DHT22;20127;48.962;8.342;2023-06-26T09:17:56;32.60;53.50
33825;DHT22;20127;48.962;8.342;2023-06-26T09:20:59;32.50;53.80
33825;DHT22;20127;48.962;8.342;2023-06-26T09:24:01;32.10;54.20
33825;DHT22;20127;48.962;8.342;2023-06-26T09:27:04;31.70;54.90
33825;DHT22;20127;48.962;8.342;2023-06-26T09:30:07;31.70;55.40
33825;DHT22;20127;48.962;8.342;2023-06-26T09:33:14;31.60;55.30
33825;DHT22;20127;48.962;8.342;2023-06-26T09:36:20;31.30;56.10
33825;DHT22;20127;48.962;8.342;2023-06-26T09:39:22;31.50;56.10
33825;DHT22;20127;48.962;8.342;2023-06-26T09:42:24;31.20;56.00
33825;DHT22;20127;48.962;8.342;2023-06-26T09:45:25;31.10;56.90
33825;DHT22;20127;48.962;8.342;2023-06-26T09:48:28;31.30;56.90
33825;DHT22;20127;48.962;8.342;2023-06-26T09:51:31;31.50;56.70
33825;DHT22;20127;48.962;8.342;2023-06-26T09:54:33;31.80;56.10
33825;DHT22;20127;48.962;8.342;2023-06-26T09:57:38;31.90;56.20
33825;DHT22;20127;48.962;8.342;2023-06-26T10:00:40;31.80;56.20
33825;DHT22;20127;48.962;8.342;2023-06-26T10:03:42;31.80;56.70
33825;DHT22;20127;48.962;8.342;2023-06-26T10:06:46;32.10;56.60
33825;DHT22;20127;48.962;8.342;2023-06-26T10:09:50;32.60;55.60
33825;DHT22;20127;48.962;8.342;2023-06-26T10:12:59;32.80;55.20
33825;DHT22;20127;48.962;8.342;2023-06-26T10:16:07;33.00;55.00
33825;DHT22;20127;48.962;8.342;2023-06-26T10:19:10;33.20;54.60
33825;DHT22;20127;48.962;8.342;2023-06-26T10:22:15;33.30;54.30
33825;DHT22;20127;48.962;8.342;2023-06-26T10:25:19;33.40;53.70
33825;DHT22;20127;48.962;8.342;2023-06-26T10:28:21;33.60;53.70
33825;DHT22;20127;48.962;8.342;2023-06-26T10:31:26;33.60;53.40
33825;DHT22;20127;48.962;8.342;2023-06-26T10:34:29;33.60;52.60
33825;DHT22;20127;48.962;8.342;2023-06-26T10:37:42;33.40;52.80
33825;DHT22;20127;48.962;8.342;2023-06-26T10:40:46;33.60;52.80
33825;DHT22;20127;48.962;8.342;2023-06-26T10:43:51;34.00;52.10
33825;DHT22;20127;48.962;8.342;2023-06-26T10:46:54;34.50;51.20
33825;DHT22;20127;48.962;8.342;2023-06-26T10:49:57;34.80;51.10
33825;DHT22;20127;48.962;8.342;2023-06-26T10:53:24;34.70;50.70
33825;DHT22;20127;48.962;8.342;2023-06-26T10:56:43;35.00;50.10
33825;DHT22;20127;48.962;8.342;2023-06-26T10:59:45;34.80;49.80
33825;DHT22;20127;48.962;8.342;2023-06-26T11:02:48;34.50;50.20
33825;DHT22;20127;48.962;8.342;2023-06-26T11:06:08;34.10;50.30
33825;DHT22;20127;48.962;8.342;2023-06-26T11:09:15;33.50;51.10
33825;DHT22;20127;48.962;8.342;2023-06-26T11:12:34;33.30;51.90
33825;DHT22;20127;48.962;8.342;2023-06-26T11:15:37;33.60;51.20
33825;DHT22;20127;48.962;8.342;2023-06-26T11:18:39;33.40;51.60
33825;DHT22;20127;48.962;8.342;2023-06-26T11:21:41;33.40;51.10
33825;DHT22;20127;48.962;8.342;2023-06-26T11:24:44;33.70;50.30
33825;DHT22;20127;48.962;8.342;2023-06-26T11:27:46;33.50;49.60
33825;DHT22;20127;48.962;8.342;2023-06-26T11:30:48;33.30;50.10
33825;DHT22;20127;48.962;8.342;2023-06-26T11:33:49;33.50;49.80
33825;DHT22;20127;48.962;8.342;2023-06-26T11:36:51;33.60;49.50
33825;DHT22;20127;48.962;8.342;2023-06-26T11:39:54;33.80;48.90
33825;DHT22;20127;48.962;8.342;2023-06-26T11:42:57;33.70;48.80
33825;DHT22;20127;48.962;8.342;2023-06-26T11:45:59;33.80;48.30
33825;DHT22;20127;48.962;8.342;2023-06-26T11:49:03;33.70;48.00
33825;DHT22;20127;48.962;8.342;2023-06-26T11:52:05;33.60;48.10
33825;DHT22;20127;48.962;8.342;2023-06-26T11:55:08;33.90;48.10
33825;DHT22;20127;48.962;8.342;2023-06-26T11:58:11;34.20;47.30
33825;DHT22;20127;48.962;8.342;2023-06-26T12:01:15;34.50;46.70
33825;DHT22;20127;48.962;8.342;2023-06-26T12:04:18;34.70;45.70
33825;DHT22;20127;48.962;8.342;2023-06-26T12:07:20;34.60;45.20
33825;DHT22;20127;48.962;8.342;2023-06-26T12:10:24;34.30;45.30
33825;DHT22;20127;48.962;8.342;2023-06-26T12:13:26;34.40;45.00
33825;DHT22;20127;48.962;8.342;2023-06-26T12:16:29;34.20;44.90
33825;DHT22;20127;48.962;8.342;2023-06-26T12:19:31;34.20;45.10
33825;DHT22;20127;48.962;8.342;2023-06-26T12:22:34;34.40;44.60
33825;DHT22;20127;48.962;8.342;2023-06-26T12:25:37;34.40;45.20
33825;DHT22;20127;48.962;8.342;2023-06-26T12:28:39;34.50;44.10
33825;DHT22;20127;48.962;8.342;2023-06-26T12:31:41;34.50;43.80
33825;DHT22;20127;48.962;8.342;2023-06-26T12:34:48;34.50;43.20
33825;DHT22;20127;48.962;8.342;2023-06-26T12:37:50;34.40;43.10
33825;DHT22;20127;48.962;8.342;2023-06-26T12:40:56;34.40;43.70
33825;DHT22;20127;48.962;8.342;2023-06-26T12:43:58;34.80;43.10
33825;DHT22;20127;48.962;8.342;2023-06-26T12:47:00;34.90;43.10
33825;DHT22;20127;48.962;8.342;2023-06-26T12:50:05;34.70;42.70
33825;DHT22;20127;48.962;8.342;2023-06-26T12:53:07;34.60;43.20
33825;DHT22;20127;48.962;8.342;2023-06-26T12:56:10;34.40;43.40
33825;DHT22;20127;48.962;8.342;2023-06-26T12:59:12;34.70;43.50
33825;DHT22;20127;48.962;8.342;2023-06-26T13:02:14;34.70;43.20
33825;DHT22;20127;48.962;8.342;2023-06-26T13:05:16;35.00;43.00
33825;DHT22;20127;48.962;8.342;2023-06-26T13:08:17;35.00;42.80
33825;DHT22;20127;48.962;8.342;2023-06-26T13:11:21;35.00;42.30
33825;DHT22;20127;48.962;8.342;2023-06-26T13:14:23;34.80;42.50
33825;DHT22;20127;48.962;8.342;2023-06-26T13:17:24;34.80;42.30
33825;DHT22;20127;48.962;8.342;2023-06-26T13:20:26;34.80;42.00
33825;DHT22;20127;48.962;8.342;2023-06-26T13:23:28;34.80;42.00
33825;DHT22;20127;48.962;8.342;2023-06-26T13:26:31;34.70;42.30
33825;DHT22;20127;48.962;8.342;2023-06-26T13:29:33;34.80;43.00
33825;DHT22;20127;48.962;8.342;2023-06-26T13:32:35;35.00;42.00
33825;DHT22;20127;48.962;8.342;2023-06-26T13:35:37;34.70;41.80
33825;DHT22;20127;48.962;8.342;2023-06-26T13:38:39;34.60;42.10
33825;DHT22;20127;48.962;8.342;2023-06-26T13:41:42;34.50;41.80
33825;DHT22;20127;48.962;8.342;2023-06-26T13:44:44;34.40;42.30
33825;DHT22;20127;48.962;8.342;2023-06-26T13:47:46;34.30;42.80
33825;DHT22;20127;48.962;8.342;2023-06-26T13:50:48;34.20;42.30
33825;DHT22;20127;48.962;8.342;2023-06-26T13:53:49;34.00;42.20
33825;DHT22;20127;48.962;8.342;2023-06-26T13:56:52;33.90;42.80
33825;DHT22;20127;48.962;8.342;2023-06-26T13:59:57;34.10;42.90
33825;DHT22;20127;48.962;8.342;2023-06-26T14:02:59;34.10;43.00
33825;DHT22;20127;48.962;8.342;2023-06-26T14:06:01;34.20;42.80
33825;DHT22;20127;48.962;8.342;2023-06-26T14:09:03;34.10;43.00
33825;DHT22;20127;48.962;8.342;2023-06-26T14:12:07;34.10;42.70
33825;DHT22;20127;48.962;8.342;2023-06-26T14:15:10;34.00;42.80
33825;DHT22;20127;48.962;8.342;2023-06-26T14:18:11;34.00;43.00
33825;DHT22;20127;48.962;8.342;2023-06-26T14:21:13;34.00;43.20
33825;DHT22;20127;48.962;8.342;2023-06-26T14:24:15;34.00;43.20
33825;DHT22;20127;48.962;8.342;2023-06-26T14:27:18;33.90;43.20
33825;DHT22;20127;48.962;8.342;2023-06-26T14:30:20;33.70;43.00
33825;DHT22;20127;48.962;8.342;2023-06-26T14:33:22;33.50;43.20
33825;DHT22;20127;48.962;8.342;2023-06-26T14:36:26;33.40;42.70
33825;DHT22;20127;48.962;8.342;2023-06-26T14:39:31;33.20;43.30
33825;DHT22;20127;48.962;8.342;2023-06-26T14:42:34;33.00;42.70
33825;DHT22;20127;48.962;8.342;2023-06-26T14:45:36;32.80;42.70
33825;DHT22;20127;48.962;8.342;2023-06-26T14:48:37;32.70;42.90
33825;DHT22;20127;48.962;8.342;2023-06-26T14:51:39;32.70;42.80
33825;DHT22;20127;48.962;8.342;2023-06-26T14:54:41;32.70;42.80
33825;DHT22;20127;48.962;8.342;2023-06-26T14:57:44;32.70;42.60
33825;DHT22;20127;48.962;8.342;2023-06-26T15:00:46;32.70;42.00
33825;DHT22;20127;48.962;8.342;2023-06-26T15:03:48;32.50;42.10
33825;DHT22;20127;48.962;8.342;2023-06-26T15:06:52;32.60;41.70
33825;DHT22;20127;48.962;8.342;2023-06-26T15:09:54;32.70;41.10
33825;DHT22;20127;48.962;8.342;2023-06-26T15:12:57;32.70;40.20
33825;DHT22;20127;48.962;8.342;2023-06-26T15:15:59;32.60;39.80
33825;DHT22;20127;48.962;8.342;2023-06-26T15:19:00;32.50;39.50
33825;DHT22;20127;48.962;8.342;2023-06-26T15:22:02;32.40;39.30
33825;DHT22;20127;48.962;8.342;2023-06-26T15:25:05;32.30;38.90
33825;DHT22;20127;48.962;8.342;2023-06-26T15:28:08;32.20;37.80
33825;DHT22;20127;48.962;8.342;2023-06-26T15:31:10;32.10;37.40
33825;DHT22;20127;48.962;8.342;2023-06-26T15:34:12;31.90;37.50
33825;DHT22;20127;48.962;8.342;2023-06-26T15:37:14;31.70;36.40
33825;DHT22;20127;48.962;8.342;2023-06-26T15:40:15;31.50;36.00
33825;DHT22;20127;48.962;8.342;2023-06-26T15:43:19;31.50;35.80
33825;DHT22;20127;48.962;8.342;2023-06-26T15:46:21;31.60;35.50
33825;DHT22;20127;48.962;8.342;2023-06-26T15:49:23;31.80;35.20
33825;DHT22;20127;48.962;8.342;2023-06-26T15:52:24;31.80;35.30
33825;DHT22;20127;48.962;8.342;2023-06-26T15:55:26;31.70;35.60
33825;DHT22;20127;48.962;8.342;2023-06-26T15:58:29;31.60;35.60
33825;DHT22;20127;48.962;8.342;2023-06-26T16:01:31;31.30;35.70
33825;DHT22;20127;48.962;8.342;2023-06-26T16:04:32;31.00;36.20
33825;DHT22;20127;48.962;8.342;2023-06-26T16:07:35;30.80;36.20
33825;DHT22;20127;48.962;8.342;2023-06-26T16:10:37;30.70;36.50
33825;DHT22;20127;48.962;8.342;2023-06-26T16:13:40;30.60;36.70
33825;DHT22;20127;48.962;8.342;2023-06-26T16:16:42;30.50;37.20
33825;DHT22;20127;48.962;8.342;2023-06-26T16:19:43;30.50;37.50
33825;DHT22;20127;48.962;8.342;2023-06-26T16:22:45;30.40;37.60
33825;DHT22;20127;48.962;8.342;2023-06-26T16:25:47;30.30;37.80
33825;DHT22;20127;48.962;8.342;2023-06-26T16:28:50;30.20;37.90
33825;DHT22;20127;48.962;8.342;2023-06-26T16:31:52;30.30;37.70
33825;DHT22;20127;48.962;8.342;2023-06-26T16:34:54;30.40;37.50
33825;DHT22;20127;48.962;8.342;2023-06-26T16:37:56;30.30;37.70
33825;DHT22;20127;48.962;8.342;2023-06-26T16:40:57;30.30;37.70
33825;DHT22;20127;48.962;8.342;2023-06-26T16:44:00;30.30;37.60
33825;DHT22;20127;48.962;8.342;2023-06-26T16:47:02;30.20;37.70
33825;DHT22;20127;48.962;8.342;2023-06-26T16:50:05;30.10;37.80
33825;DHT22;20127;48.962;8.342;2023-06-26T16:53:07;30.00;38.00
33825;DHT22;20127;48.962;8.342;2023-06-26T16:56:09;30.00;38.50
33825;DHT22;20127;48.962;8.342;2023-06-26T16:59:12;30.00;38.40
33825;DHT22;20127;48.962;8.342;2023-06-26T17:02:14;30.00;38.50
33825;DHT22;20127;48.962;8.342;2023-06-26T17:05:15;29.90;38.50
33825;DHT22;20127;48.962;8.342;2023-06-26T17:08:17;29.80;38.70
33825;DHT22;20127;48.962;8.342;2023-06-26T17:11:19;29.70;38.90
33825;DHT22;20127;48.962;8.342;2023-06-26T17:14:22;29.60;39.20
33825;DHT22;20127;48.962;8.342;2023-06-26T17:17:23;29.30;39.60
33825;DHT22;20127;48.962;8.342;2023-06-26T17:20:25;29.20;40.10
33825;DHT22;20127;48.962;8.342;2023-06-26T17:23:27;28.90;40.30
33825;DHT22;20127;48.962;8.342;2023-06-26T17:26:29;28.70;40.50
33825;DHT22;20127;48.962;8.342;2023-06-26T17:29:32;28.50;40.80
33825;DHT22;20127;48.962;8.342;2023-06-26T17:32:34;28.30;41.10
33825;DHT22;20127;48.962;8.342;2023-06-26T17:35:36;28.10;41.40
33825;DHT22;20127;48.962;8.342;2023-06-26T17:38:38;27.90;41.50
33825;DHT22;20127;48.962;8.342;2023-06-26T17:41:42;27.80;41.40
33825;DHT22;20127;48.962;8.342;2023-06-26T17:44:45;27.60;41.30
33825;DHT22;20127;48.962;8.342;2023-06-26T17:47:47;27.40;41.60
33825;DHT22;20127;48.962;8.342;2023-06-26T17:50:48;27.30;41.60
33825;DHT22;20127;48.962;8.342;2023-06-26T17:53:50;27.20;41.60
33825;DHT22;20127;48.962;8.342;2023-06-26T17:56:52;27.10;41.60
33825;DHT22;20127;48.962;8.342;2023-06-26T17:59:55;27.00;41.80
33825;DHT22;20127;48.962;8.342;2023-06-26T18:02:57;26.90;41.70
33825;DHT22;20127;48.962;8.342;2023-06-26T18:05:59;26.70;41.60
33825;DHT22;20127;48.962;8.342;2023-06-26T18:09:01;26.60;41.80
33825;DHT22;20127;48.962;8.342;2023-06-26T18:12:09;26.50;42.10
33825;DHT22;20127;48.962;8.342;2023-06-26T18:15:12;26.30;42.30
33825;DHT22;20127;48.962;8.342;2023-06-26T18:18:14;26.20;42.60
33825;DHT22;20127;48.962;8.342;2023-06-26T18:21:15;26.10;43.00
33825;DHT22;20127;48.962;8.342;2023-06-26T18:24:17;25.90;43.30
33825;DHT22;20127;48.962;8.342;2023-06-26T18:27:19;25.80;43.60
33825;DHT22;20127;48.962;8.342;2023-06-26T18:30:22;25.70;43.80
33825;DHT22;20127;48.962;8.342;2023-06-26T18:33:24;25.60;44.20
33825;DHT22;20127;48.962;8.342;2023-06-26T18:36:28;25.40;44.50
33825;DHT22;20127;48.962;8.342;2023-06-26T18:39:31;25.30;45.00
33825;DHT22;20127;48.962;8.342;2023-06-26T18:42:33;25.10;45.50
33825;DHT22;20127;48.962;8.342;2023-06-26T18:45:39;25.00;46.00
33825;DHT22;20127;48.962;8.342;2023-06-26T18:48:45;24.80;46.60
33825;DHT22;20127;48.962;8.342;2023-06-26T18:51:48;24.60;47.10
33825;DHT22;20127;48.962;8.342;2023-06-26T18:54:49;24.50;47.40
33825;DHT22;20127;48.962;8.342;2023-06-26T18:57:51;24.30;47.70
33825;DHT22;20127;48.962;8.342;2023-06-26T19:00:54;24.20;48.10
33825;DHT22;20127;48.962;8.342;2023-06-26T19:03:58;24.10;48.50
33825;DHT22;20127;48.962;8.342;2023-06-26T19:07:00;24.00;48.80
33825;DHT22;20127;48.962;8.342;2023-06-26T19:10:02;23.80;49.20
33825;DHT22;20127;48.962;8.342;2023-06-26T19:13:05;23.70;49.60